Time;durP1;ratioP1;P1;durP2;ratioP2;P2;SDS_P1;SDS_P2;PMS_P1;PMS_P2;Temp;Humidity;BMP_temperature;BMP_pressure;BME280_temperature;BME280_humidity;BME280_pressure;Samples;Min_cycle;Max_cycle;Signal;HPM_P1;HPM_P2
2022/06/06 00:02:04;;;;;;;6.00;5.13;;;;;;;14.70;99.88;101059.97;5012734;28;20279;-48
2022/06/06 00:04:29;;;;;;;6.70;5.25;;;;;;;14.63;100.00;101061.25;5012441;28;20573;-50
2022/06/06 00:06:58;;;;;;;5.57;4.90;;;;;;;14.63;100.00;101047.75;5012810;28;20235;-49
2022/06/06 00:09:24;;;;;;;6.32;5.70;;;;;;;14.61;100.00;101049.66;5012861;28;20675;-50
2022/06/06 00:11:49;;;;;;;7.78;6.40;;;;;;;14.54;100.00;101049.06;5012304;28;20291;-49
2022/06/06 00:14:17;;;;;;;5.72;5.13;;;;;;;14.59;100.00;101043.47;5012323;28;20208;-52
2022/06/06 00:16:43;;;;;;;6.78;5.97;;;;;;;14.58;100.00;101028.22;5012733;28;20227;-50
2022/06/06 00:19:10;;;;;;;7.47;5.90;;;;;;;14.56;100.00;101024.75;5012538;28;20632;-52
2022/06/06 00:21:37;;;;;;;8.98;6.20;;;;;;;14.57;100.00;101018.41;5012354;28;20169;-50
2022/06/06 00:24:03;;;;;;;6.25;5.65;;;;;;;14.62;100.00;101013.66;5011648;28;20204;-48
2022/06/06 00:26:31;;;;;;;6.60;5.90;;;;;;;14.65;100.00;101007.22;5012385;28;20699;-48
2022/06/06 00:28:57;;;;;;;6.93;6.32;;;;;;;14.58;100.00;101002.16;5011956;28;20303;-48
2022/06/06 00:36:57;;;;;;;7.20;6.40;;;;;;;14.56;100.00;100998.69;5012022;28;20172;-49
2022/06/06 00:39:23;;;;;;;6.75;5.95;;;;;;;14.57;100.00;100996.84;5012266;28;20165;-50
2022/06/06 00:41:51;;;;;;;7.95;7.15;;;;;;;14.59;100.00;100992.25;5011646;28;20776;-51
2022/06/06 00:44:32;;;;;;;7.90;7.13;;;;;;;14.56;100.00;100985.19;5011405;28;20208;-51
2022/06/06 00:47:08;;;;;;;9.23;7.05;;;;;;;14.58;100.00;100983.28;5011754;28;20249;-49
2022/06/06 00:49:36;;;;;;;10.93;7.10;;;;;;;14.58;100.00;100980.59;5011660;28;20810;-49
2022/06/06 00:52:04;;;;;;;8.00;7.15;;;;;;;14.50;100.00;100957.66;5012251;28;20212;-50
2022/06/06 00:54:30;;;;;;;8.85;6.80;;;;;;;14.51;100.00;100957.53;5010085;28;20216;-48
2022/06/06 00:57:02;;;;;;;8.68;6.78;;;;;;;14.55;100.00;100944.81;5011906;28;20172;-50
2022/06/06 00:59:30;;;;;;;9.38;6.63;;;;;;;14.61;100.00;100947.19;5010388;28;20272;-51
2022/06/06 01:01:57;;;;;;;7.75;7.05;;;;;;;14.60;100.00;100935.50;5011660;28;20188;-49
2022/06/06 01:04:26;;;;;;;10.65;7.70;;;;;;;14.43;100.00;100931.00;5011083;28;20208;-48
2022/06/06 01:06:52;;;;;;;8.05;7.32;;;;;;;14.32;100.00;100924.41;5011373;28;20189;-50
2022/06/06 01:09:20;;;;;;;8.43;7.40;;;;;;;14.32;100.00;100925.31;5011531;28;20746;-49
2022/06/06 01:11:51;;;;;;;8.25;7.35;;;;;;;14.38;100.00;100916.88;5011505;28;20204;-48
2022/06/06 01:14:20;;;;;;;9.07;7.40;;;;;;;14.36;100.00;100913.38;5013307;28;20195;-48
2022/06/06 01:17:04;;;;;;;10.32;7.43;;;;;;;14.42;100.00;100915.75;5028829;28;20221;-50
2022/06/06 01:19:47;;;;;;;7.95;7.20;;;;;;;14.38;100.00;100908.78;5030262;28;20302;-48
2022/06/06 01:22:37;;;;;;;8.52;7.70;;;;;;;14.21;100.00;100895.34;5031067;28;20180;-48
2022/06/06 01:25:37;;;;;;;8.98;8.07;;;;;;;14.22;100.00;100884.47;5026236;28;20206;-50
2022/06/06 01:28:42;;;;;;;9.05;8.18;;;;;;;14.34;100.00;100895.56;5010160;28;20525;-49
2022/06/06 01:31:11;;;;;;;9.85;8.20;;;;;;;14.21;100.00;100898.03;5000322;28;20322;-48
2022/06/06 01:33:54;;;;;;;8.68;7.78;;;;;;;14.17;100.00;100905.41;5010238;28;20200;-49
2022/06/06 01:36:21;;;;;;;8.00;6.97;;;;;;;14.29;100.00;100897.63;5010352;28;20223;-49
2022/06/06 01:38:48;;;;;;;8.60;7.70;;;;;;;14.23;100.00;100896.13;5011083;28;20177;-50
2022/06/06 01:41:22;;;;;;;8.88;7.78;;;;;;;14.13;100.00;100901.13;5010694;28;20176;-48
2022/06/06 01:44:00;;;;;;;7.80;7.00;;;;;;;14.21;100.00;100900.72;5010210;28;20196;-47
2022/06/06 01:46:30;;;;;;;9.45;7.38;;;;;;;14.19;100.00;100899.94;5011089;28;20172;-46
2022/06/06 01:48:56;;;;;;;9.73;8.55;;;;;;;14.18;100.00;100938.63;5010459;28;20200;-46
2022/06/06 01:51:27;;;;;;;9.80;8.90;;;;;;;14.12;100.00;100966.75;5010774;28;20199;-47
2022/06/06 01:53:53;;;;;;;9.70;8.80;;;;;;;14.11;100.00;100958.75;5008569;28;20192;-44
2022/06/06 01:56:23;;;;;;;10.35;9.32;;;;;;;14.11;100.00;100956.94;5010472;28;20187;-45
2022/06/06 01:58:48;;;;;;;10.98;9.15;;;;;;;14.14;100.00;100942.41;5010875;28;20225;-46
2022/06/06 02:01:14;;;;;;;9.55;8.65;;;;;;;14.28;100.00;100936.31;5010065;28;20259;-47
2022/06/06 02:03:39;;;;;;;9.10;8.25;;;;;;;14.24;100.00;100930.22;5008191;28;20241;-46
2022/06/06 02:06:05;;;;;;;10.50;8.77;;;;;;;14.24;100.00;100922.13;5009843;28;20885;-46
2022/06/06 02:08:32;;;;;;;9.80;8.75;;;;;;;14.27;100.00;100931.88;5009260;28;20220;-45
2022/06/06 02:10:58;;;;;;;9.27;8.38;;;;;;;14.22;100.00;100907.88;5010342;28;20252;-45
2022/06/06 02:13:23;;;;;;;9.02;8.15;;;;;;;14.32;100.00;100909.16;5009609;28;20426;-46
2022/06/06 02:15:49;;;;;;;10.75;9.02;;;;;;;14.24;100.00;100914.06;5010613;28;20177;-45
2022/06/06 02:18:15;;;;;;;10.25;9.25;;;;;;;14.19;100.00;100911.59;5009888;28;20180;-45
2022/06/06 02:20:40;;;;;;;10.38;9.07;;;;;;;14.27;100.00;100892.31;5010244;28;20177;-45
2022/06/06 02:23:06;;;;;;;10.75;9.63;;;;;;;14.21;100.00;100893.53;5009381;28;20213;-45
2022/06/06 02:25:33;;;;;;;8.68;7.88;;;;;;;14.29;100.00;100892.25;5009819;28;20177;-44
2022/06/06 02:27:59;;;;;;;9.52;8.68;;;;;;;14.31;100.00;100877.72;5010025;28;20267;-45
2022/06/06 02:30:28;;;;;;;10.00;9.00;;;;;;;14.25;100.00;100869.97;5010053;28;20193;-46
2022/06/06 02:32:54;;;;;;;10.82;9.20;;;;;;;14.32;100.00;100874.09;5009650;28;20254;-45
2022/06/06 02:35:23;;;;;;;11.50;9.25;;;;;;;14.30;100.00;100858.94;5010043;28;20254;-46
2022/06/06 02:37:50;;;;;;;10.10;9.10;;;;;;;14.29;100.00;100835.66;5009761;28;20268;-43
2022/06/06 02:40:18;;;;;;;8.27;7.50;;;;;;;14.38;100.00;100844.09;5010262;28;20168;-44
2022/06/06 02:42:43;;;;;;;9.10;8.30;;;;;;;14.41;100.00;100841.25;5009718;28;20259;-45
2022/06/06 02:45:10;;;;;;;9.50;8.57;;;;;;;14.31;100.00;100847.22;5009408;28;20301;-46
2022/06/06 02:47:37;;;;;;;10.70;9.60;;;;;;;14.34;100.00;100842.56;5009623;28;20192;-45
2022/06/06 02:50:06;;;;;;;9.75;8.95;;;;;;;14.26;100.00;100842.09;5009567;28;20646;-47
2022/06/06 02:52:31;;;;;;;9.20;8.30;;;;;;;14.25;100.00;100832.25;5009673;28;20208;-44
2022/06/06 02:54:57;;;;;;;9.35;8.45;;;;;;;14.27;100.00;100841.13;5009171;28;20243;-46
2022/06/06 02:57:22;;;;;;;9.18;8.35;;;;;;;14.24;100.00;100846.69;5009505;28;20184;-45
2022/06/06 02:59:50;;;;;;;10.02;9.05;;;;;;;14.23;100.00;100836.84;5010191;28;20173;-44
2022/06/06 03:02:16;;;;;;;10.45;9.02;;;;;;;14.21;100.00;100842.34;5009495;28;20572;-45
2022/06/06 03:04:42;;;;;;;10.95;8.85;;;;;;;14.18;100.00;100839.78;5009164;28;20211;-45
2022/06/06 03:07:42;;;;;;;9.45;8.55;;;;;;;14.15;100.00;100828.31;5009793;28;20622;-45
2022/06/06 03:10:43;;;;;;;9.85;8.85;;;;;;;14.07;100.00;100838.63;5009197;28;20289;-45
2022/06/06 03:13:25;;;;;;;10.88;8.70;;;;;;;14.13;100.00;100841.88;4985440;28;20216;-45
2022/06/06 03:22:21;;;;;;;9.98;8.32;;;;;;;13.98;100.00;100819.28;5032797;28;20186;-46
2022/06/06 03:25:08;;;;;;;12.50;9.02;;;;;;;14.04;100.00;100831.56;5030290;28;20255;-45
2022/06/06 03:28:14;;;;;;;10.77;7.95;;;;;;;14.07;100.00;100812.53;5030983;28;20692;-45
2022/06/06 03:31:01;;;;;;;10.02;9.02;;;;;;;13.97;100.00;100813.97;5047928;28;20210;-45
2022/06/06 03:34:02;;;;;;;9.98;9.00;;;;;;;13.95;100.00;100814.06;5031508;28;20192;-45
2022/06/06 03:36:46;;;;;;;11.82;8.77;;;;;;;13.91;100.00;100825.09;4999086;28;20596;-46
2022/06/06 03:39:38;;;;;;;9.77;8.77;;;;;;;13.95;100.00;100818.56;5032222;28;20255;-44
2022/06/06 03:42:28;;;;;;;10.38;9.18;;;;;;;13.88;100.00;100812.63;5032473;28;20164;-44
2022/06/06 03:45:07;;;;;;;10.38;9.38;;;;;;;13.94;100.00;100816.84;5031646;28;20196;-46
2022/06/06 03:48:06;;;;;;;9.80;8.80;;;;;;;13.90;100.00;100820.63;5034888;28;20201;-44
2022/06/06 03:50:53;;;;;;;10.48;9.23;;;;;;;13.91;100.00;100811.63;5029257;28;20188;-45
2022/06/06 03:53:36;;;;;;;11.60;10.50;;;;;;;13.90;100.00;100816.13;5029952;28;20196;-45
2022/06/06 03:56:29;;;;;;;13.27;10.98;;;;;;;13.92;100.00;100816.91;5030110;28;20184;-43
2022/06/06 03:58:56;;;;;;;12.02;10.88;;;;;;;14.00;100.00;100830.84;5030456;28;20226;-46
2022/06/06 04:01:23;;;;;;;11.68;10.50;;;;;;;14.03;100.00;100813.66;5030070;28;20168;-45
2022/06/06 04:03:50;;;;;;;12.95;11.27;;;;;;;14.01;100.00;100811.06;5029699;28;20659;-46
2022/06/06 04:06:19;;;;;;;12.80;11.43;;;;;;;14.07;100.00;100815.25;5030438;28;20222;-45
2022/06/06 04:08:45;;;;;;;12.80;11.65;;;;;;;14.06;100.00;100826.97;5030225;28;20247;-48
2022/06/06 04:11:29;;;;;;;12.55;11.35;;;;;;;14.15;100.00;100823.78;5030657;28;20282;-46
2022/06/06 04:14:32;;;;;;;13.52;12.23;;;;;;;14.22;100.00;100818.94;5029997;28;20203;-46
2022/06/06 04:17:16;;;;;;;12.60;11.40;;;;;;;14.29;100.00;100806.00;5030506;28;20171;-47
2022/06/06 04:19:53;;;;;;;13.05;11.85;;;;;;;14.26;100.00;100820.53;5030183;28;20590;-46
2022/06/06 04:22:40;;;;;;;13.30;12.02;;;;;;;14.25;100.00;100823.28;5030539;28;20170;-48
2022/06/06 04:25:12;;;;;;;14.43;12.93;;;;;;;14.27;100.00;100824.94;5025900;28;20201;-42
2022/06/06 04:28:16;;;;;;;14.93;13.43;;;;;;;14.38;100.00;100822.53;5010401;28;20176;-44
2022/06/06 04:30:47;;;;;;;13.75;12.57;;;;;;;14.48;100.00;100812.13;5010586;28;20216;-42
2022/06/06 04:33:40;;;;;;;14.93;13.52;;;;;;;14.50;100.00;100810.22;5009898;28;20204;-41
2022/06/06 04:36:44;;;;;;;16.15;14.75;;;;;;;14.57;100.00;100813.50;5009913;28;20200;-43
2022/06/06 04:39:20;;;;;;;16.30;14.70;;;;;;;14.64;100.00;100806.78;4972949;28;20192;-41
2022/06/06 04:41:52;;;;;;;16.55;15.00;;;;;;;14.75;100.00;100807.06;5010340;28;20180;-45
2022/06/06 04:44:38;;;;;;;16.70;15.10;;;;;;;14.79;100.00;100805.06;5009782;28;20209;-43
2022/06/06 04:47:18;;;;;;;16.38;14.88;;;;;;;14.82;100.00;100791.41;5010226;28;20203;-43
2022/06/06 04:49:46;;;;;;;16.80;15.20;;;;;;;14.89;100.00;100794.63;5011818;28;20189;-41
2022/06/06 04:52:13;;;;;;;17.33;15.65;;;;;;;14.95;100.00;100797.84;5011517;28;20191;-43
2022/06/06 04:54:41;;;;;;;17.27;15.50;;;;;;;14.99;100.00;100801.25;5011729;28;20204;-44
2022/06/06 04:57:08;;;;;;;16.42;14.82;;;;;;;15.02;100.00;100803.75;5011538;28;20165;-40
2022/06/06 04:59:35;;;;;;;17.50;15.88;;;;;;;15.08;100.00;100806.09;5011470;28;20636;-43
2022/06/06 05:02:02;;;;;;;17.67;15.98;;;;;;;15.06;100.00;100804.47;5010155;28;20191;-40
2022/06/06 05:04:29;;;;;;;17.13;15.63;;;;;;;15.11;100.00;100805.94;5011128;28;20209;-42
2022/06/06 05:07:03;;;;;;;16.80;15.20;;;;;;;15.14;100.00;100805.75;5011643;28;20224;-42
2022/06/06 05:09:50;;;;;;;17.35;15.65;;;;;;;15.19;100.00;100816.28;5011548;28;20300;-43
2022/06/06 05:12:35;;;;;;;17.10;15.60;;;;;;;15.20;100.00;100812.66;5011414;28;20173;-41
2022/06/06 05:15:23;;;;;;;16.52;15.02;;;;;;;15.15;100.00;100820.13;5010624;28;20200;-41
2022/06/06 05:18:08;;;;;;;15.13;13.82;;;;;;;15.22;100.00;100833.19;5011470;28;20211;-45
2022/06/06 05:21:03;;;;;;;15.45;14.10;;;;;;;15.22;100.00;100826.94;5011242;28;20176;-42
2022/06/06 05:23:47;;;;;;;16.00;14.65;;;;;;;15.25;100.00;100822.19;5010753;28;20216;-42
2022/06/06 05:26:34;;;;;;;14.80;13.50;;;;;;;15.29;100.00;100828.31;5024202;28;20188;-43
2022/06/06 05:29:20;;;;;;;14.18;12.98;;;;;;;15.28;100.00;100831.06;5030950;28;20725;-40
2022/06/06 05:32:07;;;;;;;13.68;12.48;;;;;;;15.30;100.00;100837.25;5030810;28;20172;-42
2022/06/06 05:34:56;;;;;;;14.27;13.02;;;;;;;15.29;100.00;100832.84;5030444;28;20575;-44
2022/06/06 05:37:37;;;;;;;12.73;11.68;;;;;;;15.29;100.00;100838.25;5030706;28;20222;-42
2022/06/06 05:40:24;;;;;;;11.82;10.73;;;;;;;15.31;100.00;100837.19;5030296;28;20670;-41
2022/06/06 05:43:01;;;;;;;11.23;10.18;;;;;;;15.31;100.00;100839.88;5030656;28;20176;-43
2022/06/06 05:45:27;;;;;;;10.25;9.35;;;;;;;15.35;100.00;100851.34;5030349;28;20179;-43
2022/06/06 05:47:55;;;;;;;10.50;9.60;;;;;;;15.29;100.00;100849.91;5030801;28;20168;-42
2022/06/06 05:50:39;;;;;;;9.23;8.63;;;;;;;15.31;100.00;100855.22;5062234;28;20699;-42
2022/06/06 05:53:10;;;;;;;9.80;8.77;;;;;;;15.35;100.00;100848.66;5030114;28;20665;-44
2022/06/06 05:56:00;;;;;;;8.15;7.55;;;;;;;15.38;100.00;100856.59;5030219;28;20179;-43
2022/06/06 05:58:47;;;;;;;7.90;7.20;;;;;;;15.43;100.00;100851.78;5032715;28;20186;-43
2022/06/06 06:01:42;;;;;;;7.18;6.47;;;;;;;15.47;100.00;100864.16;5029933;28;20265;-42
2022/06/06 06:04:07;;;;;;;6.50;6.00;;;;;;;15.50;100.00;100873.91;5029614;28;20208;-43
2022/06/06 06:07:02;;;;;;;6.03;5.60;;;;;;;15.50;100.00;100869.34;5030331;28;20617;-44
2022/06/06 06:09:39;;;;;;;6.43;5.05;;;;;;;15.54;100.00;100875.47;5029170;28;20200;-43
2022/06/06 06:12:24;;;;;;;5.30;4.95;;;;;;;15.54;100.00;100878.16;5030155;28;20180;-43
2022/06/06 06:14:59;;;;;;;5.25;4.85;;;;;;;15.53;100.00;100873.75;5029570;28;20294;-43
2022/06/06 06:17:28;;;;;;;5.13;4.72;;;;;;;15.51;100.00;100878.34;5028330;28;20176;-44
2022/06/06 06:20:09;;;;;;;5.15;4.78;;;;;;;15.61;100.00;100888.53;5029940;28;20218;-42
2022/06/06 06:22:40;;;;;;;6.60;5.03;;;;;;;15.56;100.00;100884.34;5029640;28;20188;-47
2022/06/06 06:25:08;;;;;;;5.05;4.70;;;;;;;15.61;100.00;100882.25;5033592;28;20196;-47
2022/06/06 06:27:34;;;;;;;5.25;4.82;;;;;;;15.60;100.00;100886.78;5010017;28;20219;-47
2022/06/06 06:30:00;;;;;;;5.18;4.78;;;;;;;15.62;100.00;100892.09;5009918;28;20568;-49
2022/06/06 06:32:38;;;;;;;5.60;5.10;;;;;;;15.63;100.00;100889.31;5010445;28;20287;-48
2022/06/06 06:35:24;;;;;;;5.57;5.18;;;;;;;15.60;100.00;100902.13;5009302;28;20702;-47
2022/06/06 06:38:01;;;;;;;5.05;4.65;;;;;;;15.67;100.00;100903.50;5010498;28;20640;-47
2022/06/06 06:40:45;;;;;;;5.68;5.18;;;;;;;15.64;100.00;100895.59;5010229;28;20612;-48
2022/06/06 06:43:29;;;;;;;4.60;4.30;;;;;;;15.74;100.00;100902.22;5048167;28;20290;-47
2022/06/06 06:46:00;;;;;;;5.45;5.05;;;;;;;15.74;100.00;100898.63;5049184;28;20600;-47
2022/06/06 06:48:37;;;;;;;5.80;5.00;;;;;;;15.79;100.00;100901.97;5048939;28;20190;-49
2022/06/06 06:51:12;;;;;;;5.40;4.90;;;;;;;15.76;100.00;100908.38;5049060;28;20237;-47
2022/06/06 06:53:50;;;;;;;5.05;4.65;;;;;;;15.81;100.00;100918.94;5052908;28;20611;-48
2022/06/06 06:56:27;;;;;;;5.22;4.82;;;;;;;15.82;100.00;100921.53;5037699;28;20180;-47
2022/06/06 06:59:23;;;;;;;5.07;4.68;;;;;;;15.88;100.00;100923.03;5033853;28;20221;-47
2022/06/06 07:11:12;;;;;;;5.47;5.07;;;;;;;16.20;100.00;100944.53;5032941;28;20215;-46
2022/06/06 07:13:56;;;;;;;7.30;5.38;;;;;;;16.14;100.00;100939.53;5032753;28;20731;-48
2022/06/06 07:16:24;;;;;;;5.60;5.10;;;;;;;16.18;100.00;100943.75;5033233;28;20279;-48
2022/06/06 07:19:07;;;;;;;5.10;4.70;;;;;;;16.15;100.00;100938.56;5033869;28;20184;-47
2022/06/06 07:21:34;;;;;;;5.22;4.72;;;;;;;16.24;100.00;100943.41;5032883;28;20184;-48
2022/06/06 07:24:03;;;;;;;5.55;5.05;;;;;;;16.34;100.00;100943.75;5032659;28;20216;-47
2022/06/06 07:26:29;;;;;;;5.45;4.95;;;;;;;16.35;100.00;100940.91;5017343;28;20295;-45
2022/06/06 07:28:54;;;;;;;7.03;5.50;;;;;;;16.55;100.00;100938.84;5019568;28;20193;-47
2022/06/06 07:31:35;;;;;;;6.25;5.72;;;;;;;16.66;100.00;100947.16;5033201;28;20176;-47
2022/06/06 07:34:15;;;;;;;6.00;5.50;;;;;;;16.76;100.00;100947.47;5025074;28;20243;-46
2022/06/06 07:37:08;;;;;;;6.32;5.72;;;;;;;16.73;100.00;100958.50;5032452;28;20188;-47
2022/06/06 07:40:19;;;;;;;7.15;6.45;;;;;;;16.77;100.00;100960.91;5032785;28;20180;-47
2022/06/06 07:42:56;;;;;;;6.25;5.75;;;;;;;16.80;100.00;100955.31;4990794;28;20185;-48
2022/06/06 07:45:25;;;;;;;7.20;6.50;;;;;;;16.74;100.00;100960.22;4981757;28;20196;-46
2022/06/06 07:48:32;;;;;;;7.30;6.60;;;;;;;16.79;100.00;100958.97;5002094;28;20689;-47
2022/06/06 07:51:03;;;;;;;7.90;7.20;;;;;;;16.81;100.00;100958.91;5025484;28;20263;-48
2022/06/06 07:53:47;;;;;;;7.88;7.00;;;;;;;16.77;100.00;100969.03;5031672;28;20419;-47
2022/06/06 07:56:15;;;;;;;8.45;7.60;;;;;;;16.80;100.00;100973.41;5032480;28;20183;-47
2022/06/06 07:58:41;;;;;;;8.15;7.35;;;;;;;16.83;99.42;100975.91;5032348;28;20596;-46
2022/06/06 08:01:19;;;;;;;7.90;7.10;;;;;;;16.82;98.97;100980.47;5032788;28;20677;-48
2022/06/06 08:03:51;;;;;;;7.85;7.15;;;;;;;16.82;98.56;100980.47;5030666;28;20204;-47
2022/06/06 08:06:36;;;;;;;11.13;7.80;;;;;;;16.82;97.52;100988.56;5032119;28;20655;-48
2022/06/06 08:09:20;;;;;;;8.57;7.68;;;;;;;16.80;97.87;100990.50;5029117;28;20227;-46
2022/06/06 08:12:08;;;;;;;11.02;7.68;;;;;;;16.77;97.86;100982.56;5030575;28;20279;-45
2022/06/06 08:14:42;;;;;;;10.93;8.07;;;;;;;16.80;97.94;100984.22;5026066;28;20208;-47
2022/06/06 08:17:27;;;;;;;9.00;8.10;;;;;;;16.69;98.17;100983.00;5031838;28;20816;-48
2022/06/06 08:20:12;;;;;;;8.57;7.63;;;;;;;16.61;98.75;100977.19;5029321;28;20210;-47
2022/06/06 08:22:42;;;;;;;9.13;6.90;;;;;;;16.68;99.53;100993.91;5030680;28;20615;-45
2022/06/06 08:25:11;;;;;;;9.55;8.57;;;;;;;16.46;98.97;100984.44;5038554;28;20678;-48
2022/06/06 08:27:37;;;;;;;9.30;8.32;;;;;;;16.34;99.12;100995.97;5032237;28;20532;-46
2022/06/06 08:30:04;;;;;;;10.18;8.80;;;;;;;16.22;99.12;100986.78;5037673;28;20290;-47
2022/06/06 08:32:30;;;;;;;9.30;8.07;;;;;;;16.30;99.94;100997.13;5032061;28;20176;-48
2022/06/06 08:34:56;;;;;;;11.02;9.88;;;;;;;16.20;99.93;101002.22;5031117;28;20203;-47
2022/06/06 08:37:57;;;;;;;13.88;10.85;;;;;;;16.10;100.00;100995.59;5032119;28;20191;-47
2022/06/06 08:40:38;;;;;;;12.40;9.60;;;;;;;16.30;100.00;101002.53;5014971;28;20235;-47
2022/06/06 08:43:18;;;;;;;12.43;9.93;;;;;;;16.37;100.00;101003.03;5035396;28;20646;-47
2022/06/06 08:46:05;;;;;;;11.23;10.02;;;;;;;16.43;100.00;100997.25;5036707;28;20198;-48
2022/06/06 08:49:08;;;;;;;12.68;10.45;;;;;;;16.32;100.00;101006.00;5051062;28;20304;-48
2022/06/06 08:51:47;;;;;;;14.15;10.77;;;;;;;16.33;100.00;101010.44;5051418;28;20555;-46
2022/06/06 08:54:40;;;;;;;15.55;11.05;;;;;;;16.36;99.55;101018.38;5050917;28;20206;-46
2022/06/06 08:57:20;;;;;;;13.65;10.60;;;;;;;16.43;99.32;101011.66;5051132;28;20627;-47
2022/06/06 09:00:16;;;;;;;14.05;10.85;;;;;;;16.52;99.13;101017.47;5044703;28;20460;-46
2022/06/06 09:03:28;;;;;;;15.00;11.15;;;;;;;16.53;98.71;101027.31;5029099;28;20188;-46
2022/06/06 09:06:10;;;;;;;13.57;11.77;;;;;;;16.64;97.30;101027.56;5019945;28;20428;-44
2022/06/06 09:09:07;;;;;;;12.40;10.02;;;;;;;16.63;96.82;101026.66;5026862;28;20757;-42
2022/06/06 09:12:14;;;;;;;10.60;8.40;;;;;;;16.55;95.37;101026.28;5015094;28;20188;-42
2022/06/06 09:15:01;;;;;;;10.02;7.68;;;;;;;16.53;94.60;101038.13;5021767;28;20210;-43
2022/06/06 09:17:32;;;;;;;10.07;7.68;;;;;;;16.51;94.60;101040.06;5027804;28;20184;-41
2022/06/06 09:20:35;;;;;;;8.40;6.53;;;;;;;16.39;93.65;101044.38;5028944;28;20176;-42
2022/06/06 09:23:33;;;;;;;11.82;6.05;;;;;;;16.34;93.26;101041.94;5028709;28;20218;-41
2022/06/06 09:26:21;;;;;;;7.63;6.45;;;;;;;16.25;92.75;101047.91;5017515;28;20176;-43
2022/06/06 09:29:18;;;;;;;10.00;8.35;;;;;;;16.28;92.20;101055.81;5009424;28;20180;-41
2022/06/06 09:32:25;;;;;;;8.77;7.80;;;;;;;16.27;91.59;101057.66;5009404;28;20621;-40
2022/06/06 09:34:51;;;;;;;9.73;7.15;;;;;;;16.43;91.60;101049.50;4947683;29;20580;-42
2022/06/06 09:37:44;;;;;;;9.15;7.53;;;;;;;16.64;91.43;101050.06;4996500;28;20201;-41
2022/06/06 09:40:28;;;;;;;10.43;7.55;;;;;;;16.94;89.97;101060.00;5009183;28;20240;-41
2022/06/06 09:43:28;;;;;;;11.15;8.07;;;;;;;17.56;87.99;101058.88;5008946;28;20181;-42
2022/06/06 09:46:14;;;;;;;11.02;7.70;;;;;;;17.16;87.05;101066.81;5008661;28;20310;-41
2022/06/06 09:48:43;;;;;;;9.10;7.78;;;;;;;17.15;87.61;101065.94;5009014;28;20276;-43
2022/06/06 09:51:27;;;;;;;10.27;8.10;;;;;;;17.10;88.41;101076.22;5010207;28;20196;-42
2022/06/06 10:00:40;;;;;;;9.95;8.93;;;;;;;16.19;90.71;101092.38;5010949;28;20169;-41
2022/06/06 10:03:33;;;;;;;10.90;8.68;;;;;;;16.11;90.97;101086.53;5008867;28;20168;-41
2022/06/06 10:06:16;;;;;;;10.82;8.73;;;;;;;16.14;90.68;101094.47;5010719;28;20192;-41
2022/06/06 10:08:54;;;;;;;12.25;7.95;;;;;;;16.19;90.59;101091.50;5010123;28;20169;-41
2022/06/06 10:11:38;;;;;;;10.27;9.15;;;;;;;16.06;90.70;101089.50;5010647;28;20226;-41
2022/06/06 10:14:15;;;;;;;12.35;9.15;;;;;;;16.03;90.59;101086.97;5010107;28;20192;-42
2022/06/06 10:17:06;;;;;;;10.20;8.75;;;;;;;16.65;89.97;101092.38;5010537;28;20196;-44
2022/06/06 10:19:48;;;;;;;9.82;8.48;;;;;;;16.86;88.32;101086.69;5010523;28;20615;-42
2022/06/06 10:22:33;;;;;;;11.02;9.20;;;;;;;16.94;87.32;101080.81;5009848;28;20189;-42
2022/06/06 10:25:14;;;;;;;8.88;7.82;;;;;;;16.86;85.67;101095.69;5009951;28;20204;-42
2022/06/06 10:27:58;;;;;;;11.75;7.93;;;;;;;16.74;86.40;101093.66;5009931;28;20173;-43
2022/06/06 10:30:49;;;;;;;9.93;8.05;;;;;;;16.94;86.40;101095.19;5010364;28;20196;-42
2022/06/06 10:33:52;;;;;;;8.75;7.03;;;;;;;17.43;84.80;101102.16;5009438;28;20770;-42
2022/06/06 10:36:36;;;;;;;9.60;6.80;;;;;;;18.37;82.48;101090.72;5010055;28;20172;-42
2022/06/06 10:39:27;;;;;;;8.48;5.63;;;;;;;18.49;79.23;101088.03;5009944;28;20615;-42
2022/06/06 10:42:07;;;;;;;6.55;5.88;;;;;;;17.78;78.68;101102.63;5010222;28;20240;-41
2022/06/06 10:44:51;;;;;;;6.70;5.95;;;;;;;17.76;79.54;101092.84;5008489;28;20219;-44
2022/06/06 10:47:24;;;;;;;8.07;5.35;;;;;;;17.57;80.03;101104.84;5010338;28;20173;-41
2022/06/06 10:49:49;;;;;;;5.90;5.30;;;;;;;17.66;79.91;101106.09;5010225;28;20527;-43
2022/06/06 10:53:07;;;;;;;6.05;5.13;;;;;;;17.26;81.76;101112.19;5010360;28;20165;-41
2022/06/06 10:56:10;;;;;;;7.07;5.30;;;;;;;17.67;80.88;101099.72;5009986;28;20180;-43
2022/06/06 10:58:54;;;;;;;7.18;5.63;;;;;;;17.84;80.13;101101.38;5010214;28;20191;-44
2022/06/06 11:01:41;;;;;;;7.70;5.45;;;;;;;17.81;80.05;101097.00;5010241;28;20172;-43
2022/06/06 11:04:40;;;;;;;5.63;4.95;;;;;;;17.86;80.46;101111.19;5009706;28;20224;-42
2022/06/06 11:07:48;;;;;;;6.88;5.13;;;;;;;17.68;80.34;101110.44;5009988;28;20168;-40
2022/06/06 11:10:23;;;;;;;7.45;4.68;;;;;;;18.23;79.80;101095.19;4981884;28;20224;-41
2022/06/06 11:12:51;;;;;;;7.82;5.00;;;;;;;18.99;78.55;101095.56;5009680;28;20176;-43
2022/06/06 11:15:17;;;;;;;5.35;4.85;;;;;;;19.18;73.83;101096.03;5009787;28;20664;-39
2022/06/06 11:18:13;;;;;;;5.80;4.53;;;;;;;19.02;75.05;101101.66;5009667;28;20176;-43
2022/06/06 11:21:11;;;;;;;5.30;4.80;;;;;;;19.14;74.34;101097.22;5010232;28;20183;-44
2022/06/06 11:23:59;;;;;;;5.70;4.80;;;;;;;19.19;74.41;101094.19;5008954;28;20207;-42
2022/06/06 11:26:50;;;;;;;4.82;4.40;;;;;;;19.42;75.22;101098.88;5023173;28;20168;-43
2022/06/06 11:29:43;;;;;;;4.60;4.20;;;;;;;19.29;74.58;101089.84;5029359;28;20244;-42
2022/06/06 11:32:26;;;;;;;5.97;4.65;;;;;;;19.35;73.55;101087.56;5030011;28;20168;-41
2022/06/06 11:35:13;;;;;;;5.95;4.90;;;;;;;20.05;73.01;101088.00;5029041;28;20192;-41
2022/06/06 11:37:57;;;;;;;5.60;5.07;;;;;;;20.01;70.47;101083.81;5029545;28;20227;-45
2022/06/06 11:40:50;;;;;;;5.43;4.68;;;;;;;19.76;70.12;101086.44;5032484;28;20620;-42
2022/06/06 11:43:28;;;;;;;5.45;4.68;;;;;;;20.35;70.24;101077.53;5032951;28;20192;-43
2022/06/06 11:46:31;;;;;;;5.50;5.00;;;;;;;20.06;69.13;101081.59;5032975;28;20210;-44
2022/06/06 11:49:25;;;;;;;5.68;5.05;;;;;;;19.60;69.65;101083.06;5032539;28;20176;-41
2022/06/06 11:52:12;;;;;;;6.18;4.47;;;;;;;20.15;69.05;101078.19;5032990;28;20203;-41
2022/06/06 11:54:55;;;;;;;4.75;4.18;;;;;;;20.12;70.00;101081.16;5032357;28;20671;-44
2022/06/06 11:57:53;;;;;;;4.50;4.10;;;;;;;20.10;69.04;101089.41;5032661;28;20526;-43
2022/06/06 12:00:37;;;;;;;5.90;4.28;;;;;;;20.31;67.42;101084.25;5031343;28;20304;-42
2022/06/06 12:03:31;;;;;;;5.00;4.60;;;;;;;20.51;66.52;101076.38;5032268;28;20247;-44
2022/06/06 12:06:00;;;;;;;4.82;4.32;;;;;;;20.64;67.12;101073.63;5032540;28;20635;-42
2022/06/06 12:08:47;;;;;;;5.35;4.55;;;;;;;20.37;65.78;101081.03;5032465;28;20638;-43
2022/06/06 12:11:42;;;;;;;4.10;3.70;;;;;;;20.63;66.04;101080.94;5032463;28;20527;-43
2022/06/06 12:14:20;;;;;;;5.93;4.55;;;;;;;20.32;67.37;101090.53;5032085;28;20195;-42
2022/06/06 12:17:07;;;;;;;4.82;4.32;;;;;;;20.82;66.97;101095.88;5032400;28;20179;-42
2022/06/06 12:19:53;;;;;;;4.90;4.40;;;;;;;20.73;64.21;101081.13;5032197;28;20214;-45
2022/06/06 12:22:44;;;;;;;6.45;5.20;;;;;;;20.60;65.65;101099.34;5032245;28;20164;-44
2022/06/06 12:25:28;;;;;;;4.68;4.28;;;;;;;20.84;65.39;101091.16;5027096;28;20200;-46
2022/06/06 12:28:07;;;;;;;7.10;5.13;;;;;;;20.16;65.57;101082.66;5012534;28;20176;-47
2022/06/06 12:30:50;;;;;;;6.50;5.07;;;;;;;20.05;66.11;101091.63;5012164;28;20605;-44
2022/06/06 12:33:21;;;;;;;5.53;4.63;;;;;;;19.82;66.69;101078.84;5023077;28;20277;-44
2022/06/06 12:36:01;;;;;;;5.00;4.57;;;;;;;19.67;67.00;101087.09;5031963;28;20541;-45
2022/06/06 12:38:30;;;;;;;6.30;4.80;;;;;;;19.55;65.80;101082.56;5031824;28;20198;-44